Mine Maru — JK5487 — position and weather

sailwx.info

Track history (hours):
 
Tides and Currents Weather Stations Pressure Air Temp Water Temp Dewpoint Dewpoint Depression Visibility Wind Speed Wind Dir Waves Ship Positions

Mine Maru

Last reported at 2017-Oct-13 13:00 UTC. Time now 2017-Oct-18 01:59 UTC.
Position N 34°53' E 140°00'.

Length 129 m; draft 6.5 m.

Type: Cargo ship. MMSI: 431400732.

Date/timePositionNaut miles runAvg speedWind from/ knotsBaromVisibWave heightAir tempDewpointWater temp
2017-Oct-13 13:00N 34°53' E 140°00'2314.4
2017-Oct-13 11:22N 35°04' E 140°25'35 1.2
2017-Oct-12 06:28N 34°56' E 139°43'612.0
2017-Oct-12 06:01N 35°01' E 139°42'612.9
2017-Oct-12 05:30N 35°08' E 139°45'612.6
2017-Oct-12 05:01N 35°14' E 139°46'612.7
2017-Oct-12 04:30N 35°20' E 139°43'612.2
2017-Oct-12 04:01N 35°25' E 139°44'713.4
2017-Oct-12 03:31N 35°29' E 139°51'713.5
2017-Oct-12 03:00N 35°32' E 139°59'7 1.1
2017-Oct-11 20:24N 35°28' E 139°52'513.0
2017-Oct-11 20:00N 35°25' E 139°47'713.0
2017-Oct-11 19:30N 35°18' E 139°44'612.1
2017-Oct-11 19:00N 35°13' E 139°47'612.8
2017-Oct-11 18:30N 35°07' E 139°46'612.7
2017-Oct-11 18:00N 35°01' E 139°43'611.5
2017-Oct-11 17:30N 34°56' E 139°38'815.3
2017-Oct-11 17:00N 34°55' E 139°29'  
2017-Oct-05 06:22N 34°59' E 139°32'514.0
2017-Oct-05 06:01N 35°02' E 139°37'714.3
2017-Oct-05 05:31N 35°07' E 139°43'713.8
2017-Oct-05 05:00N 35°14' E 139°46'612.5
2017-Oct-05 04:30N 35°19' E 139°43'612.4
2017-Oct-05 04:01N 35°25' E 139°45'5 9.9
2017-Oct-05 03:29N 35°30' E 139°47'1 2.7
2017-Oct-05 03:00N 35°31' E 139°45'0 0.0
2017-Oct-05 02:29N 35°31' E 139°45'0 0.0
2017-Oct-05 01:59N 35°31' E 139°45'0 0.0
2017-Oct-05 01:26N 35°31' E 139°45'0 0.0
2017-Oct-05 00:59N 35°31' E 139°45'0 0.0
2017-Oct-05 00:29N 35°31' E 139°45'0 0.0
2017-Oct-04 23:59N 35°31' E 139°45'0 0.0
2017-Oct-04 23:23N 35°31' E 139°45'0 0.0
2017-Oct-04 22:59N 35°31' E 139°45'0 0.0
2017-Oct-04 22:29N 35°31' E 139°45'0 0.0
2017-Oct-04 21:56N 35°31' E 139°45'0 0.0
2017-Oct-04 21:29N 35°31' E 139°45'0 0.0
2017-Oct-04 20:59N 35°31' E 139°45'0 0.0
2017-Oct-04 20:29N 35°31' E 139°45'0 0.0
2017-Oct-04 19:59N 35°31' E 139°45'0 0.0
2017-Oct-04 19:29N 35°31' E 139°45'0 0.0
2017-Oct-04 18:59N 35°31' E 139°45'0 0.0
2017-Oct-04 18:29N 35°31' E 139°45'0 0.0
2017-Oct-04 17:56N 35°31' E 139°45'0 0.0
2017-Oct-04 17:29N 35°31' E 139°45'0 0.0
2017-Oct-04 16:59N 35°31' E 139°45'0 0.0
2017-Oct-04 16:29N 35°31' E 139°45'0 0.0
2017-Oct-04 15:59N 35°31' E 139°45'0 0.0
2017-Oct-04 15:29N 35°31' E 139°45'0 0.0
2017-Oct-04 14:59N 35°31' E 139°45'0 0.0
2017-Oct-04 14:29N 35°31' E 139°45'0 0.0
2017-Oct-04 13:59N 35°31' E 139°45'0 0.0
2017-Oct-04 13:29N 35°31' E 139°45'0 0.0
2017-Oct-04 12:59N 35°31' E 139°45'0 0.0
2017-Oct-04 12:29N 35°31' E 139°45'0 0.0
2017-Oct-04 11:59N 35°31' E 139°45'0 0.0
2017-Oct-04 11:29N 35°31' E 139°45'0 0.0
2017-Oct-04 10:59N 35°31' E 139°45'0 0.0
2017-Oct-04 10:29N 35°31' E 139°45'0 0.0
2017-Oct-04 09:59N 35°31' E 139°45'0 0.0
2017-Oct-04 09:26N 35°31' E 139°45'0 0.0
2017-Oct-04 08:59N 35°31' E 139°45'0 0.0
2017-Oct-04 08:26N 35°31' E 139°45'0 0.0
2017-Oct-04 07:50N 35°31' E 139°45'0 0.0
2017-Oct-04 07:26N 35°31' E 139°45'0 0.0
2017-Oct-04 06:56N 35°31' E 139°45'0 0.0
2017-Oct-04 06:26N 35°31' E 139°45'0 0.0
2017-Oct-04 05:56N 35°31' E 139°45'0 0.0
2017-Oct-04 05:26N 35°31' E 139°45'0 0.0
2017-Oct-04 04:56N 35°31' E 139°45'0 0.0
2017-Oct-04 04:26N 35°31' E 139°45'0 0.0
2017-Oct-04 03:59N 35°31' E 139°45'0 0.0
2017-Oct-04 03:29N 35°31' E 139°45'0 0.0
2017-Oct-04 02:59N 35°31' E 139°45'0 0.0
2017-Oct-04 02:26N 35°31' E 139°45'0 0.0
2017-Oct-04 01:59N 35°31' E 139°45'0 0.0
2017-Oct-04 01:29N 35°31' E 139°45'0 0.0
2017-Oct-04 00:59N 35°31' E 139°45'0 0.1
2017-Oct-04 00:30N 35°31' E 139°45'1 1.4
2017-Oct-04 00:00N 35°30' E 139°44'3 5.6
2017-Oct-03 23:30N 35°28' E 139°42'4 7.1
2017-Oct-03 23:00N 35°25' E 139°45'3 5.4
2017-Oct-03 22:28N 35°22' E 139°44'0 0.2
2017-Oct-03 21:58N 35°22' E 139°44'0 0.0
2017-Oct-03 21:28N 35°22' E 139°44'0 0.0
2017-Oct-03 20:58N 35°22' E 139°44'0 0.0
2017-Oct-03 20:28N 35°22' E 139°44'0 0.0
2017-Oct-03 19:55N 35°22' E 139°44'0 0.0
2017-Oct-03 19:28N 35°22' E 139°44'0 0.0
2017-Oct-03 18:58N 35°22' E 139°44'0 0.0
2017-Oct-03 18:28N 35°22' E 139°44'0 0.0
2017-Oct-03 17:58N 35°22' E 139°44'0 0.0
2017-Oct-03 17:28N 35°22' E 139°44'0 0.1
2017-Oct-03 16:58N 35°22' E 139°44'0 0.0
2017-Oct-03 16:28N 35°22' E 139°44'0 0.0
2017-Oct-03 15:58N 35°22' E 139°44'0 0.0
2017-Oct-03 15:28N 35°22' E 139°44'0 0.0
2017-Oct-03 14:55N 35°22' E 139°44'0 0.1
2017-Oct-03 13:55N 35°22' E 139°44'0 0.1
2017-Oct-03 13:28N 35°22' E 139°44'  
Track history (hours):
 
Tides and Currents Weather Stations Pressure Air Temp Water Temp Dewpoint Dewpoint Depression Visibility Wind Speed Wind Dir Waves Ship Positions

Mine Maru

Last reported at 2017-Oct-13 13:00 UTC. Time now 2017-Oct-18 01:59 UTC.
Position N 34°53' E 140°00'.

Length 129 m; draft 6.5 m.

Type: Cargo ship. MMSI: 431400732.

Date/timePositionNaut miles runAvg speedWind from/ knotsBaromVisibWave heightAir tempDewpointWater temp
2017-Oct-13 13:00N 34°53' E 140°00'2314.4
2017-Oct-13 11:22N 35°04' E 140°25'35 1.2
2017-Oct-12 06:28N 34°56' E 139°43'612.0
2017-Oct-12 06:01N 35°01' E 139°42'612.9
2017-Oct-12 05:30N 35°08' E 139°45'612.6
2017-Oct-12 05:01N 35°14' E 139°46'612.7
2017-Oct-12 04:30N 35°20' E 139°43'612.2
2017-Oct-12 04:01N 35°25' E 139°44'713.4
2017-Oct-12 03:31N 35°29' E 139°51'713.5
2017-Oct-12 03:00N 35°32' E 139°59'7 1.1
2017-Oct-11 20:24N 35°28' E 139°52'513.0
2017-Oct-11 20:00N 35°25' E 139°47'713.0
2017-Oct-11 19:30N 35°18' E 139°44'612.1
2017-Oct-11 19:00N 35°13' E 139°47'612.8
2017-Oct-11 18:30N 35°07' E 139°46'612.7
2017-Oct-11 18:00N 35°01' E 139°43'611.5
2017-Oct-11 17:30N 34°56' E 139°38'815.3
2017-Oct-11 17:00N 34°55' E 139°29'  
2017-Oct-05 06:22N 34°59' E 139°32'514.0
2017-Oct-05 06:01N 35°02' E 139°37'714.3
2017-Oct-05 05:31N 35°07' E 139°43'713.8
2017-Oct-05 05:00N 35°14' E 139°46'612.5
2017-Oct-05 04:30N 35°19' E 139°43'612.4
2017-Oct-05 04:01N 35°25' E 139°45'5 9.9
2017-Oct-05 03:29N 35°30' E 139°47'1 2.7
2017-Oct-05 03:00N 35°31' E 139°45'0 0.0
2017-Oct-05 02:29N 35°31' E 139°45'0 0.0
2017-Oct-05 01:59N 35°31' E 139°45'0 0.0
2017-Oct-05 01:26N 35°31' E 139°45'0 0.0
2017-Oct-05 00:59N 35°31' E 139°45'0 0.0
2017-Oct-05 00:29N 35°31' E 139°45'0 0.0
2017-Oct-04 23:59N 35°31' E 139°45'0 0.0
2017-Oct-04 23:23N 35°31' E 139°45'0 0.0
2017-Oct-04 22:59N 35°31' E 139°45'0 0.0
2017-Oct-04 22:29N 35°31' E 139°45'0 0.0
2017-Oct-04 21:56N 35°31' E 139°45'0 0.0
2017-Oct-04 21:29N 35°31' E 139°45'0 0.0
2017-Oct-04 20:59N 35°31' E 139°45'0 0.0
2017-Oct-04 20:29N 35°31' E 139°45'0 0.0
2017-Oct-04 19:59N 35°31' E 139°45'0 0.0
2017-Oct-04 19:29N 35°31' E 139°45'0 0.0
2017-Oct-04 18:59N 35°31' E 139°45'0 0.0
2017-Oct-04 18:29N 35°31' E 139°45'0 0.0
2017-Oct-04 17:56N 35°31' E 139°45'0 0.0
2017-Oct-04 17:29N 35°31' E 139°45'0 0.0
2017-Oct-04 16:59N 35°31' E 139°45'0 0.0
2017-Oct-04 16:29N 35°31' E 139°45'0 0.0
2017-Oct-04 15:59N 35°31' E 139°45'0 0.0
2017-Oct-04 15:29N 35°31' E 139°45'0 0.0
2017-Oct-04 14:59N 35°31' E 139°45'0 0.0
2017-Oct-04 14:29N 35°31' E 139°45'0 0.0
2017-Oct-04 13:59N 35°31' E 139°45'0 0.0
2017-Oct-04 13:29N 35°31' E 139°45'0 0.0
2017-Oct-04 12:59N 35°31' E 139°45'0 0.0
2017-Oct-04 12:29N 35°31' E 139°45'0 0.0
2017-Oct-04 11:59N 35°31' E 139°45'0 0.0
2017-Oct-04 11:29N 35°31' E 139°45'0 0.0
2017-Oct-04 10:59N 35°31' E 139°45'0 0.0
2017-Oct-04 10:29N 35°31' E 139°45'0 0.0
2017-Oct-04 09:59N 35°31' E 139°45'0 0.0
2017-Oct-04 09:26N 35°31' E 139°45'0 0.0
2017-Oct-04 08:59N 35°31' E 139°45'0 0.0
2017-Oct-04 08:26N 35°31' E 139°45'0 0.0
2017-Oct-04 07:50N 35°31' E 139°45'0 0.0
2017-Oct-04 07:26N 35°31' E 139°45'0 0.0
2017-Oct-04 06:56N 35°31' E 139°45'0 0.0
2017-Oct-04 06:26N 35°31' E 139°45'0 0.0
2017-Oct-04 05:56N 35°31' E 139°45'0 0.0
2017-Oct-04 05:26N 35°31' E 139°45'0 0.0
2017-Oct-04 04:56N 35°31' E 139°45'0 0.0
2017-Oct-04 04:26N 35°31' E 139°45'0 0.0
2017-Oct-04 03:59N 35°31' E 139°45'0 0.0
2017-Oct-04 03:29N 35°31' E 139°45'0 0.0
2017-Oct-04 02:59N 35°31' E 139°45'0 0.0
2017-Oct-04 02:26N 35°31' E 139°45'0 0.0
2017-Oct-04 01:59N 35°31' E 139°45'0 0.0
2017-Oct-04 01:29N 35°31' E 139°45'0 0.0
2017-Oct-04 00:59N 35°31' E 139°45'0 0.1
2017-Oct-04 00:30N 35°31' E 139°45'1 1.4
2017-Oct-04 00:00N 35°30' E 139°44'3 5.6
2017-Oct-03 23:30N 35°28' E 139°42'4 7.1
2017-Oct-03 23:00N 35°25' E 139°45'3 5.4
2017-Oct-03 22:28N 35°22' E 139°44'0 0.2
2017-Oct-03 21:58N 35°22' E 139°44'0 0.0
2017-Oct-03 21:28N 35°22' E 139°44'0 0.0
2017-Oct-03 20:58N 35°22' E 139°44'0 0.0
2017-Oct-03 20:28N 35°22' E 139°44'0 0.0
2017-Oct-03 19:55N 35°22' E 139°44'0 0.0
2017-Oct-03 19:28N 35°22' E 139°44'0 0.0
2017-Oct-03 18:58N 35°22' E 139°44'0 0.0
2017-Oct-03 18:28N 35°22' E 139°44'0 0.0
2017-Oct-03 17:58N 35°22' E 139°44'0 0.0
2017-Oct-03 17:28N 35°22' E 139°44'0 0.1
2017-Oct-03 16:58N 35°22' E 139°44'0 0.0
2017-Oct-03 16:28N 35°22' E 139°44'0 0.0
2017-Oct-03 15:58N 35°22' E 139°44'0 0.0
2017-Oct-03 15:28N 35°22' E 139°44'0 0.0
2017-Oct-03 14:55N 35°22' E 139°44'0 0.1
2017-Oct-03 13:55N 35°22' E 139°44'0 0.1
2017-Oct-03 13:28N 35°22' E 139°44'  

Dump ship's entire track history